createdAt,value
2022-11-20T00:00:56.333Z,9.46
2022-11-20T00:03:24.421Z,9.28
2022-11-20T00:05:57.504Z,9.25
2022-11-20T00:08:32.549Z,9.08
2022-11-20T00:11:17.073Z,8.39
2022-11-20T00:14:36.379Z,8.52
2022-11-20T00:17:10.523Z,8.88
2022-11-20T00:19:41.015Z,8.71
2022-11-20T00:22:26.438Z,8.65
2022-11-20T00:28:28.935Z,8.86
2022-11-20T00:31:32.997Z,8.40
2022-11-20T00:34:13.040Z,8.60
2022-11-20T00:36:40.537Z,8.95
2022-11-20T00:39:41.957Z,8.92
2022-11-20T00:42:34.908Z,8.96
2022-11-20T00:45:35.874Z,9.21
2022-11-20T00:48:06.847Z,9.13
2022-11-20T00:54:11.941Z,9.39
2022-11-20T00:56:54.481Z,9.85
2022-11-20T00:59:22.293Z,9.83
2022-11-20T01:01:49.972Z,9.39
2022-11-20T01:04:17.811Z,9.24
2022-11-20T01:06:46.342Z,10.00
2022-11-20T01:09:20.790Z,10.13
2022-11-20T01:11:51.258Z,9.99
2022-11-20T01:14:49.419Z,9.52
2022-11-20T01:17:17.127Z,9.41
2022-11-20T01:20:04.803Z,9.81
2022-11-20T01:22:40.323Z,10.08
2022-11-20T01:25:09.167Z,10.03
2022-11-20T01:29:04.913Z,10.12
2022-11-20T01:31:27.129Z,10.15
2022-11-20T01:34:01.355Z,9.85
2022-11-20T01:36:32.952Z,10.02
2022-11-20T01:39:09.106Z,9.84
2022-11-20T01:41:59.071Z,10.03
2022-11-20T01:44:51.385Z,9.79
2022-11-20T01:47:39.042Z,9.90
2022-11-20T01:50:31.032Z,9.87
2022-11-20T01:53:16.097Z,10.00
2022-11-20T01:55:55.054Z,9.98
2022-11-20T01:58:37.393Z,9.98
2022-11-20T02:01:06.129Z,9.68
2022-11-20T02:03:33.675Z,9.32
2022-11-20T02:06:22.406Z,9.40
2022-11-20T02:08:56.155Z,9.22
2022-11-20T02:11:33.879Z,9.36
2022-11-20T02:14:02.019Z,9.39
2022-11-20T02:16:53.143Z,9.37
2022-11-20T02:19:32.515Z,9.05
2022-11-20T02:23:43.550Z,9.16
2022-11-20T02:25:34.879Z,9.33
2022-11-20T02:28:07.351Z,9.53
2022-11-20T02:30:43.499Z,9.80
2022-11-20T02:33:18.442Z,9.63
2022-11-20T02:36:14.652Z,9.14
2022-11-20T02:38:55.765Z,9.17
2022-11-20T02:41:56.592Z,9.39
2022-11-20T02:44:26.469Z,9.30
2022-11-20T02:46:53.710Z,8.89
2022-11-20T02:49:21.410Z,8.94
2022-11-20T02:51:56.036Z,8.96
2022-11-20T02:54:28.635Z,8.99
2022-11-20T02:56:56.550Z,9.04
2022-11-20T02:59:32.569Z,9.03
2022-11-20T03:02:07.565Z,9.39
2022-11-20T03:04:34.999Z,9.36
2022-11-20T03:07:17.237Z,9.55
2022-11-20T03:09:51.216Z,9.43
2022-11-20T03:12:21.265Z,9.36
2022-11-20T03:14:52.866Z,9.60
2022-11-20T03:17:20.929Z,9.42
2022-11-20T03:19:48.334Z,9.57
2022-11-20T03:22:33.722Z,9.54
2022-11-20T03:25:12.593Z,9.06
2022-11-20T03:28:02.727Z,9.52
2022-11-20T03:30:53.415Z,9.82
2022-11-20T03:34:20.542Z,9.83
2022-11-20T03:36:42.532Z,10.06
2022-11-20T03:39:12.522Z,10.20
2022-11-20T03:41:57.885Z,10.20
2022-11-20T03:44:25.537Z,10.33
2022-11-20T03:46:54.444Z,10.03
2022-11-20T03:49:22.356Z,10.11
2022-11-20T03:51:54.590Z,9.95
2022-11-20T03:54:22.190Z,10.05
2022-11-20T03:56:52.006Z,10.04
2022-11-20T03:59:30.354Z,10.18
2022-11-20T04:01:57.958Z,10.11
2022-11-20T04:04:25.498Z,10.28
2022-11-20T04:06:53.470Z,9.88
2022-11-20T04:09:31.694Z,10.13
2022-11-20T04:12:04.469Z,9.97
2022-11-20T04:14:34.529Z,9.95
2022-11-20T04:17:17.293Z,10.19
2022-11-20T04:20:16.092Z,10.14
2022-11-20T04:22:46.514Z,10.31
2022-11-20T04:25:29.674Z,10.49
2022-11-20T04:28:11.910Z,10.19
2022-11-20T04:31:26.172Z,10.20
2022-11-20T04:33:55.516Z,10.28
2022-11-20T04:39:31.680Z,9.98
2022-11-20T04:42:28.510Z,9.96
2022-11-20T04:44:58.564Z,9.97
2022-11-20T04:47:46.205Z,9.89
2022-11-20T04:50:13.440Z,10.11
2022-11-20T04:52:40.726Z,10.14
2022-11-20T04:55:08.659Z,10.26
2022-11-20T04:57:35.816Z,10.58
2022-11-20T05:00:04.133Z,10.18
2022-11-20T05:02:32.960Z,10.46
2022-11-20T05:05:00.187Z,10.36
2022-11-20T05:07:27.398Z,10.06
2022-11-20T05:09:55.075Z,10.04
2022-11-20T05:12:22.584Z,10.18
2022-11-20T05:14:49.675Z,10.51
2022-11-20T05:17:16.846Z,10.72
2022-11-20T05:19:44.120Z,10.32
2022-11-20T05:22:11.293Z,10.21
2022-11-20T05:24:38.469Z,10.19
2022-11-20T05:27:05.625Z,10.26
2022-11-20T05:29:32.824Z,10.18
2022-11-20T05:32:00.011Z,10.00
2022-11-20T05:34:27.114Z,10.15
2022-11-20T05:36:54.251Z,10.51
2022-11-20T05:39:21.636Z,10.35
2022-11-20T05:42:08.946Z,10.56
2022-11-20T05:44:36.170Z,10.54
2022-11-20T05:47:03.359Z,10.48
2022-11-20T05:49:30.534Z,10.52
2022-11-20T05:51:57.763Z,10.53
2022-11-20T05:54:24.928Z,10.49
2022-11-20T05:56:52.078Z,10.58
2022-11-20T05:59:19.386Z,10.57
2022-11-20T06:01:46.788Z,10.69
2022-11-20T06:04:13.975Z,10.49
2022-11-20T06:06:41.235Z,10.53
2022-11-20T06:09:08.900Z,10.56
2022-11-20T06:11:36.810Z,10.69
2022-11-20T06:14:04.703Z,10.72
2022-11-20T06:16:31.977Z,10.86
2022-11-20T06:18:59.638Z,10.85
2022-11-20T06:21:27.108Z,10.62
2022-11-20T06:23:55.003Z,10.68
2022-11-20T06:26:27.372Z,10.63
2022-11-20T06:28:57.033Z,10.59
2022-11-20T06:31:27.268Z,10.78
2022-11-20T06:33:55.420Z,10.43
2022-11-20T06:36:24.194Z,10.18
2022-11-20T06:38:51.901Z,10.16
2022-11-20T06:41:22.979Z,10.24
2022-11-20T06:43:51.305Z,10.63
2022-11-20T06:46:20.963Z,10.69
2022-11-20T06:48:50.050Z,10.65
2022-11-20T06:51:18.103Z,10.85
2022-11-20T06:53:50.428Z,10.79
2022-11-20T06:56:18.774Z,10.83
2022-11-20T06:58:46.369Z,10.62
2022-11-20T07:01:16.008Z,10.78
2022-11-20T07:03:49.981Z,10.69
2022-11-20T07:06:18.616Z,10.79
2022-11-20T07:08:45.859Z,10.78
2022-11-20T07:11:14.339Z,10.88
2022-11-20T07:13:41.815Z,10.57
2022-11-20T07:16:10.057Z,10.77
2022-11-20T07:18:37.826Z,10.97
2022-11-20T07:21:11.254Z,10.97
2022-11-20T07:23:38.819Z,10.99
2022-11-20T07:26:10.063Z,11.07
2022-11-20T07:28:38.762Z,10.80
2022-11-20T07:31:08.305Z,10.38
2022-11-20T07:33:35.959Z,11.10
2022-11-20T07:36:03.356Z,10.94
2022-11-20T07:38:31.188Z,11.09
2022-11-20T07:41:05.264Z,11.51
2022-11-20T07:43:35.931Z,11.51
2022-11-20T07:46:10.210Z,12.01
2022-11-20T07:48:37.985Z,12.72
2022-11-20T07:51:05.826Z,12.31
2022-11-20T07:53:33.086Z,12.15
2022-11-20T07:56:05.228Z,12.16
2022-11-20T07:58:35.301Z,12.09
2022-11-20T08:01:09.370Z,12.23
2022-11-20T08:03:39.880Z,12.33
2022-11-20T08:06:08.008Z,12.25
2022-11-20T08:08:38.901Z,12.41
2022-11-20T08:11:28.248Z,12.74
2022-11-20T08:14:14.014Z,12.16
2022-11-20T08:16:44.225Z,12.11
2022-11-20T08:19:13.816Z,12.17
2022-11-20T08:21:42.175Z,12.34
2022-11-20T08:24:11.166Z,12.07
2022-11-20T08:26:40.695Z,12.20
2022-11-20T08:29:08.457Z,12.33
2022-11-20T08:31:35.949Z,12.53
2022-11-20T08:34:08.700Z,12.29
2022-11-20T08:36:37.503Z,12.21
2022-11-20T08:39:04.857Z,12.13
2022-11-20T08:41:34.264Z,12.22
2022-11-20T08:44:07.567Z,12.68
2022-11-20T08:46:42.125Z,12.45
2022-11-20T08:49:12.849Z,12.23
2022-11-20T08:51:40.961Z,12.30
2022-11-20T08:54:08.894Z,11.81
2022-11-20T08:56:37.157Z,11.81
2022-11-20T09:01:51.944Z,11.98
2022-11-20T09:04:19.237Z,12.09
2022-11-20T09:06:46.517Z,12.16
2022-11-20T09:09:14.059Z,12.58
2022-11-20T09:11:42.051Z,13.08
2022-11-20T09:14:09.772Z,13.12
2022-11-20T09:16:37.029Z,13.35
2022-11-20T09:19:34.153Z,13.26
2022-11-20T09:21:56.937Z,13.27
2022-11-20T09:24:28.816Z,12.79
2022-11-20T09:26:56.727Z,12.60
2022-11-20T09:29:24.718Z,12.89
2022-11-20T09:31:51.982Z,12.99
2022-11-20T09:34:19.154Z,12.97
2022-11-20T09:36:46.833Z,13.00
2022-11-20T09:39:14.349Z,12.88
2022-11-20T09:41:59.988Z,13.06
2022-11-20T09:45:01.427Z,13.14
2022-11-20T09:48:12.471Z,12.69
2022-11-20T09:50:51.059Z,12.74
2022-11-20T09:53:56.176Z,12.75
2022-11-20T09:56:24.573Z,12.61
2022-11-20T09:58:59.159Z,12.74
2022-11-20T10:01:36.922Z,12.81
2022-11-20T10:04:18.414Z,12.97
2022-11-20T10:07:30.951Z,12.73
2022-11-20T10:09:57.320Z,12.92
2022-11-20T10:12:58.651Z,12.63
2022-11-20T10:16:21.509Z,13.21
2022-11-20T10:19:47.456Z,12.98
2022-11-20T10:22:55.974Z,12.80
2022-11-20T10:25:56.008Z,12.77
2022-11-20T10:29:20.192Z,12.58
2022-11-20T10:32:16.342Z,12.49
2022-11-20T10:35:06.072Z,12.71
2022-11-20T10:37:39.273Z,12.66
2022-11-20T10:40:09.152Z,12.77
2022-11-20T10:42:46.128Z,12.62
2022-11-20T10:45:25.968Z,12.67
2022-11-20T10:48:22.323Z,11.97
2022-11-20T10:51:32.142Z,12.15
2022-11-20T10:55:43.226Z,11.94
2022-11-20T10:58:59.579Z,11.58
2022-11-20T11:01:28.091Z,11.62
2022-11-20T11:03:58.261Z,11.83
2022-11-20T11:06:36.827Z,11.85
2022-11-20T11:09:24.584Z,11.91
2022-11-20T11:11:55.061Z,11.75
2022-11-20T11:14:25.746Z,11.82
2022-11-20T11:16:58.546Z,11.79
2022-11-20T11:19:26.443Z,11.89
2022-11-20T11:21:57.969Z,11.94
2022-11-20T11:24:46.531Z,12.13
2022-11-20T11:27:18.995Z,12.17
2022-11-20T11:29:47.981Z,11.92
2022-11-20T11:32:23.112Z,12.18
2022-11-20T11:35:08.444Z,12.39
2022-11-20T11:37:40.334Z,12.48
2022-11-20T11:40:28.068Z,12.89
2022-11-20T11:43:03.842Z,13.26
2022-11-20T11:45:31.562Z,13.65
2022-11-20T11:48:04.776Z,14.39
2022-11-20T11:50:34.896Z,15.48
2022-11-20T11:53:27.813Z,15.65
2022-11-20T11:56:12.740Z,17.34
2022-11-20T11:58:53.589Z,17.63
2022-11-20T12:01:50.207Z,16.10
2022-11-20T12:04:44.896Z,16.53
2022-11-20T12:07:48.468Z,18.85
2022-11-20T12:10:35.889Z,19.31
2022-11-20T12:13:45.174Z,19.56
2022-11-20T12:16:19.089Z,17.87
2022-11-20T12:18:58.341Z,16.93
2022-11-20T12:21:46.743Z,14.60
2022-11-20T12:24:58.381Z,15.17
2022-11-20T12:27:48.872Z,15.62
2022-11-20T12:30:32.278Z,17.09
2022-11-20T12:34:00.658Z,20.55
2022-11-20T12:37:34.628Z,19.66
2022-11-20T12:40:35.104Z,18.19
2022-11-20T12:43:57.977Z,17.90
2022-11-20T12:47:01.296Z,17.77
2022-11-20T12:50:53.435Z,17.20
2022-11-20T12:54:24.769Z,16.48
2022-11-20T12:57:04.050Z,15.82
2022-11-20T13:00:13.072Z,15.67
2022-11-20T13:03:29.167Z,14.99
2022-11-20T13:06:18.166Z,14.39
2022-11-20T13:09:01.040Z,15.09
2022-11-20T13:12:03.791Z,15.65
2022-11-20T13:14:59.520Z,14.85
2022-11-20T13:18:10.246Z,15.25
2022-11-20T13:21:47.640Z,15.77
2022-11-20T13:23:36.483Z,15.51
2022-11-20T13:26:24.840Z,14.98
2022-11-20T13:29:28.385Z,15.01
2022-11-20T13:32:17.246Z,14.97
2022-11-20T13:35:35.947Z,14.91
2022-11-20T13:41:41.876Z,14.73
2022-11-20T13:44:35.862Z,14.66
2022-11-20T13:47:26.496Z,14.86
2022-11-20T13:49:57.063Z,14.69
2022-11-20T13:53:00.353Z,15.13
2022-11-20T13:56:06.956Z,15.18
2022-11-20T13:59:23.174Z,14.27
2022-11-20T14:02:05.372Z,14.34
2022-11-20T14:05:34.273Z,13.75
2022-11-20T14:08:50.557Z,14.07
2022-11-20T14:11:49.261Z,13.29
2022-11-20T14:14:30.467Z,12.92
2022-11-20T14:17:37.408Z,13.09
2022-11-20T14:20:14.706Z,12.85
2022-11-20T14:22:51.649Z,12.76
2022-11-20T14:25:28.042Z,12.94
2022-11-20T14:28:56.201Z,12.51
2022-11-20T14:31:28.399Z,12.52
2022-11-20T14:33:56.927Z,12.55
2022-11-20T14:37:24.615Z,12.26
2022-11-20T14:39:57.043Z,11.90
2022-11-20T14:42:43.838Z,12.09
2022-11-20T14:45:14.127Z,12.28
2022-11-20T14:47:45.193Z,12.61
2022-11-20T14:50:56.061Z,12.46
2022-11-20T14:55:11.475Z,12.47
2022-11-20T14:57:03.432Z,12.15
2022-11-20T14:59:54.286Z,12.12
2022-11-20T15:07:05.272Z,11.86
2022-11-20T15:09:23.660Z,11.80
2022-11-20T15:12:06.465Z,11.57
2022-11-20T15:14:40.248Z,11.77
2022-11-20T15:17:26.166Z,11.67
2022-11-20T15:20:18.013Z,11.96
2022-11-20T15:22:53.387Z,11.98
2022-11-20T15:26:23.001Z,12.12
2022-11-20T15:28:33.274Z,12.05
2022-11-20T15:31:22.572Z,11.84
2022-11-20T15:34:00.092Z,11.54
2022-11-20T15:36:41.884Z,11.48
2022-11-20T15:39:21.435Z,11.41
2022-11-20T15:41:52.195Z,11.23
2022-11-20T15:44:21.456Z,10.94
2022-11-20T15:46:55.409Z,10.97
2022-11-20T15:49:28.776Z,10.73
2022-11-20T15:52:06.222Z,10.63
2022-11-20T15:56:49.978Z,10.72
2022-11-20T15:58:45.313Z,10.91
2022-11-20T16:01:25.798Z,10.72
2022-11-20T16:03:56.648Z,10.42
2022-11-20T16:06:32.321Z,10.27
2022-11-20T16:09:00.305Z,10.27
2022-11-20T16:11:32.698Z,10.20
2022-11-20T16:14:23.120Z,10.28
2022-11-20T16:16:50.919Z,10.23
2022-11-20T16:19:21.666Z,10.49
2022-11-20T16:25:50.762Z,10.68
2022-11-20T16:27:27.865Z,10.83
2022-11-20T16:29:59.517Z,10.96
2022-11-20T16:32:27.778Z,10.98
2022-11-20T16:35:10.466Z,11.14
2022-11-20T16:37:46.814Z,11.12
2022-11-20T16:40:21.243Z,11.12
2022-11-20T16:43:01.430Z,11.13
2022-11-20T16:45:46.340Z,11.63
2022-11-20T16:48:30.753Z,11.61
2022-11-20T16:51:06.596Z,11.35
2022-11-20T16:53:46.847Z,10.99
2022-11-20T16:56:24.232Z,11.11
2022-11-20T16:58:57.472Z,11.23
2022-11-20T17:01:44.660Z,11.54
2022-11-20T17:04:20.881Z,11.66
2022-11-20T17:07:18.055Z,11.51
2022-11-20T17:10:16.681Z,11.51
2022-11-20T17:12:47.590Z,11.59
2022-11-20T17:15:40.911Z,11.38
2022-11-20T17:18:19.290Z,11.16
2022-11-20T17:20:53.018Z,11.04
2022-11-20T17:23:48.487Z,11.08
2022-11-20T17:27:08.431Z,11.14
2022-11-20T17:29:42.211Z,11.24
2022-11-20T17:32:23.419Z,11.34
2022-11-20T17:35:19.239Z,11.28
2022-11-20T17:37:54.908Z,11.18
2022-11-20T17:40:27.111Z,11.01
2022-11-20T17:43:23.187Z,11.18
2022-11-20T17:46:22.110Z,11.21
2022-11-20T17:49:24.220Z,11.12
2022-11-20T17:51:54.809Z,11.23
2022-11-20T17:54:25.213Z,11.50
2022-11-20T17:57:12.226Z,11.50
2022-11-20T17:59:40.788Z,11.47
2022-11-20T18:02:17.072Z,11.47
2022-11-20T18:04:54.433Z,11.43
2022-11-20T18:08:21.677Z,11.56
2022-11-20T18:10:42.094Z,11.12
2022-11-20T18:13:12.944Z,11.18
2022-11-20T18:15:59.416Z,11.31
2022-11-20T18:18:27.038Z,11.26
2022-11-20T18:20:54.581Z,11.46
2022-11-20T18:23:22.143Z,11.39
2022-11-20T18:25:49.706Z,11.53
2022-11-20T18:28:20.197Z,11.31
2022-11-20T18:30:47.785Z,11.17
2022-11-20T18:33:18.289Z,10.92
2022-11-20T18:35:55.373Z,10.83
2022-11-20T18:38:23.321Z,10.96
2022-11-20T18:40:53.745Z,11.23
2022-11-20T18:43:40.168Z,11.14
2022-11-20T18:46:08.457Z,11.03
2022-11-20T18:48:37.151Z,10.76
2022-11-20T18:51:17.508Z,10.97
2022-11-20T18:53:47.496Z,10.88
2022-11-20T18:56:16.262Z,10.90
2022-11-20T18:58:44.234Z,10.92
2022-11-20T19:01:12.418Z,10.41
2022-11-20T19:03:40.334Z,10.72
2022-11-20T19:06:16.897Z,10.72
2022-11-20T19:08:44.733Z,10.59
2022-11-20T19:11:14.018Z,10.43
2022-11-20T19:13:42.389Z,10.32
2022-11-20T19:16:19.028Z,10.13
2022-11-20T19:18:48.580Z,10.02
2022-11-20T19:21:24.187Z,10.45
2022-11-20T19:23:55.916Z,10.20
2022-11-20T19:26:24.030Z,10.19
2022-11-20T19:28:56.027Z,9.96
2022-11-20T19:31:27.031Z,9.49
2022-11-20T19:33:59.445Z,9.49
2022-11-20T19:36:44.397Z,9.26
2022-11-20T19:39:13.477Z,9.20
2022-11-20T19:41:44.857Z,9.32
2022-11-20T19:44:17.471Z,9.32
2022-11-20T19:46:45.611Z,9.68
2022-11-20T19:49:15.211Z,9.25
2022-11-20T19:51:52.483Z,9.48
2022-11-20T19:54:20.313Z,9.48
2022-11-20T19:56:49.667Z,9.50
2022-11-20T19:59:18.275Z,9.43
2022-11-20T20:01:46.513Z,9.41
2022-11-20T20:04:14.352Z,9.59
2022-11-20T20:07:05.728Z,9.54
2022-11-20T20:09:41.718Z,9.40
2022-11-20T20:12:09.090Z,9.05
2022-11-20T20:14:36.402Z,9.33
2022-11-20T20:17:40.528Z,9.49
2022-11-20T20:20:11.055Z,9.62
2022-11-20T20:22:39.037Z,9.72
2022-11-20T20:25:07.242Z,9.77
2022-11-20T20:27:36.734Z,9.52
2022-11-20T20:30:07.568Z,9.72
2022-11-20T20:32:36.211Z,9.61
2022-11-20T20:35:05.114Z,9.59
2022-11-20T20:37:32.607Z,9.58
2022-11-20T20:40:00.246Z,9.51
2022-11-20T20:42:32.479Z,9.79
2022-11-20T20:45:11.079Z,9.77
2022-11-20T20:47:41.503Z,9.66
2022-11-20T20:50:13.054Z,9.40
2022-11-20T20:52:40.782Z,9.37
2022-11-20T20:55:09.131Z,8.99
2022-11-20T20:57:36.952Z,9.25
2022-11-20T21:00:08.953Z,9.40
2022-11-20T21:02:36.621Z,9.54
2022-11-20T21:05:04.515Z,9.83
2022-11-20T21:07:31.819Z,9.75
2022-11-20T21:10:00.872Z,9.87
2022-11-20T21:12:28.660Z,9.59
2022-11-20T21:14:56.541Z,9.76
2022-11-20T21:17:24.078Z,9.62
2022-11-20T21:19:51.550Z,9.81
2022-11-20T21:22:19.135Z,10.05
2022-11-20T21:24:47.377Z,9.98
2022-11-20T21:27:15.295Z,9.83
2022-11-20T21:29:43.505Z,9.80
2022-11-20T21:32:11.287Z,9.68
2022-11-20T21:34:39.098Z,9.71
2022-11-20T21:37:07.520Z,9.75
2022-11-20T21:39:35.325Z,9.92
2022-11-20T21:42:02.742Z,9.94
2022-11-20T21:44:31.690Z,9.74
2022-11-20T21:46:59.502Z,9.56
2022-11-20T21:49:27.011Z,9.33
2022-11-20T21:51:54.599Z,8.96
2022-11-20T21:54:22.614Z,9.15
2022-11-20T21:57:02.339Z,9.27
2022-11-20T21:59:36.204Z,9.31
2022-11-20T22:02:06.477Z,9.08
2022-11-20T22:04:33.992Z,9.43
2022-11-20T22:07:01.607Z,9.37
2022-11-20T22:09:29.086Z,9.35
2022-11-20T22:11:56.792Z,9.51
2022-11-20T22:14:25.762Z,9.49
2022-11-20T22:16:54.507Z,9.44
2022-11-20T22:19:26.435Z,9.73
2022-11-20T22:21:53.725Z,9.70
2022-11-20T22:24:23.456Z,9.51
2022-11-20T22:26:52.531Z,9.81
2022-11-20T22:29:22.083Z,9.69
2022-11-20T22:31:53.577Z,9.62
2022-11-20T22:34:21.184Z,9.46
2022-11-20T22:36:48.888Z,9.82
2022-11-20T22:39:18.855Z,9.96
2022-11-20T22:41:49.230Z,9.89
2022-11-20T22:44:16.741Z,9.71
2022-11-20T22:46:46.575Z,9.87
2022-11-20T22:49:13.727Z,9.86
2022-11-20T22:51:42.024Z,9.34
2022-11-20T22:54:12.801Z,9.21
2022-11-20T22:56:41.725Z,9.55
2022-11-20T22:59:09.640Z,9.81
2022-11-20T23:01:38.494Z,9.98
2022-11-20T23:04:10.799Z,9.73
2022-11-20T23:06:38.448Z,9.53
2022-11-20T23:09:08.683Z,9.49
2022-11-20T23:11:36.829Z,9.60
2022-11-20T23:14:13.345Z,9.39
2022-11-20T23:16:41.715Z,9.38
2022-11-20T23:19:14.465Z,9.69
2022-11-20T23:21:43.713Z,9.57
2022-11-20T23:24:11.992Z,9.48
2022-11-20T23:26:41.094Z,9.67
2022-11-20T23:29:08.805Z,9.95
2022-11-20T23:31:36.374Z,10.05
2022-11-20T23:34:04.734Z,9.81
2022-11-20T23:36:32.529Z,9.80
2022-11-20T23:38:59.743Z,10.06
2022-11-20T23:41:27.522Z,10.05
2022-11-20T23:43:55.072Z,9.89
2022-11-20T23:46:22.607Z,9.67
2022-11-20T23:48:49.761Z,10.01
2022-11-20T23:51:17.966Z,9.91
2022-11-20T23:53:45.210Z,10.16
2022-11-20T23:56:15.637Z,9.99
2022-11-20T23:58:43.202Z,10.10
